createdAt,value
2017-04-23T00:00:49.279Z,0
2017-04-23T00:01:59.614Z,0
2017-04-23T00:03:09.835Z,0
2017-04-23T00:04:20.114Z,0
2017-04-23T00:05:30.086Z,0
2017-04-23T00:06:40.361Z,0
2017-04-23T00:07:50.322Z,0
2017-04-23T00:09:00.537Z,0
2017-04-23T00:10:10.822Z,0
2017-04-23T00:11:21.108Z,0
2017-04-23T00:12:31.381Z,0
2017-04-23T00:13:41.683Z,0
2017-04-23T00:14:52.219Z,0
2017-04-23T00:16:02.485Z,0
2017-04-23T00:17:12.475Z,0
2017-04-23T00:18:22.482Z,0
2017-04-23T00:19:32.774Z,0
2017-04-23T00:20:43.354Z,0
2017-04-23T00:21:53.638Z,0
2017-04-23T00:23:03.614Z,0
2017-04-23T00:24:13.010Z,0
2017-04-23T00:25:23.286Z,0
2017-04-23T00:26:33.519Z,0
2017-04-23T00:27:43.789Z,0
2017-04-23T00:28:53.757Z,0
2017-04-23T00:30:03.719Z,0
2017-04-23T00:31:13.365Z,0
2017-04-23T00:32:23.902Z,0
2017-04-23T00:33:34.183Z,0
2017-04-23T00:34:44.458Z,0
2017-04-23T00:35:54.731Z,0
2017-04-23T00:37:04.383Z,0
2017-04-23T00:38:14.597Z,0
2017-04-23T00:39:24.565Z,0
2017-04-23T00:40:34.538Z,0
2017-04-23T00:41:44.500Z,0
2017-04-23T00:42:54.781Z,0
2017-04-23T00:44:04.996Z,0
2017-04-23T00:45:14.967Z,0
2017-04-23T00:46:25.235Z,0
2017-04-23T00:47:35.198Z,0
2017-04-23T00:48:45.479Z,0
2017-04-23T00:49:56.015Z,0
2017-04-23T00:51:06.288Z,0
2017-04-23T00:52:16.254Z,0
2017-04-23T00:53:26.294Z,0
2017-04-23T00:54:36.578Z,0
2017-04-23T00:55:46.788Z,0
2017-04-23T00:56:57.077Z,0
2017-04-23T00:58:07.373Z,0
2017-04-23T00:59:17.651Z,0
2017-04-23T01:00:27.942Z,0
2017-04-23T01:01:38.514Z,0
2017-04-23T01:02:48.167Z,0
2017-04-23T01:03:58.439Z,0
2017-04-23T01:05:08.406Z,0
2017-04-23T01:06:18.685Z,0
2017-04-23T01:07:29.217Z,0
2017-04-23T01:08:39.189Z,0
2017-04-23T01:09:49.153Z,0
2017-04-23T01:10:59.431Z,0
2017-04-23T01:12:09.721Z,0
2017-04-23T01:13:20.268Z,0
2017-04-23T01:14:30.236Z,0
2017-04-23T01:15:39.887Z,0
2017-04-23T01:16:50.169Z,0
2017-04-23T01:18:00.453Z,0
2017-04-23T01:19:10.676Z,0
2017-04-23T01:20:20.946Z,0
2017-04-23T01:21:31.221Z,0
2017-04-23T01:22:41.496Z,0
2017-04-23T01:23:51.785Z,0
2017-04-23T01:25:01.700Z,0
2017-04-23T01:26:11.996Z,0
2017-04-23T01:27:22.269Z,0
2017-04-23T01:28:32.248Z,0
2017-04-23T01:29:42.527Z,0
2017-04-23T01:30:53.061Z,0
2017-04-23T01:32:03.334Z,0
2017-04-23T01:33:13.295Z,0
2017-04-23T01:34:23.260Z,0
2017-04-23T01:35:33.535Z,0
2017-04-23T01:36:43.509Z,0
2017-04-23T01:37:53.803Z,0
2017-04-23T01:39:03.765Z,0
2017-04-23T01:40:14.045Z,0
2017-04-23T01:41:24.002Z,0
2017-04-23T01:42:34.530Z,0
2017-04-23T01:43:44.801Z,0
2017-04-23T01:44:55.078Z,0
2017-04-23T01:46:05.460Z,0
2017-04-23T01:47:15.731Z,0
2017-04-23T01:48:26.257Z,0
2017-04-23T01:49:36.540Z,0
2017-04-23T01:50:46.830Z,0
2017-04-23T01:51:56.484Z,0
2017-04-23T01:53:06.763Z,0
2017-04-23T01:54:16.968Z,0
2017-04-23T01:55:27.255Z,0
2017-04-23T01:56:37.216Z,0
2017-04-23T01:57:47.497Z,0
2017-04-23T01:58:57.168Z,0
2017-04-23T02:00:07.387Z,0
2017-04-23T02:01:17.667Z,0
2017-04-23T02:02:27.316Z,0
2017-04-23T02:03:37.603Z,0
2017-04-23T02:04:47.881Z,0
2017-04-23T02:05:57.781Z,0
2017-04-23T02:07:08.062Z,0
2017-04-23T02:08:17.735Z,0
2017-04-23T02:09:28.018Z,0
2017-04-23T02:10:38.305Z,0
2017-04-23T02:11:48.830Z,0
2017-04-23T02:12:59.106Z,0
2017-04-23T02:14:09.386Z,0
2017-04-23T02:15:19.668Z,0
2017-04-23T02:16:29.943Z,0
2017-04-23T02:17:40.471Z,0
2017-04-23T02:18:50.437Z,0
2017-04-23T02:20:00.724Z,0
2017-04-23T02:21:10.404Z,0
2017-04-23T02:22:20.674Z,0
2017-04-23T02:23:30.943Z,0
2017-04-23T02:24:40.924Z,0
2017-04-23T02:25:51.217Z,0
2017-04-23T02:27:01.491Z,0
2017-04-23T02:28:11.779Z,0
2017-04-23T02:29:22.374Z,0
2017-04-23T02:30:32.033Z,0
2017-04-23T02:31:41.997Z,0
2017-04-23T02:32:52.272Z,0
2017-04-23T02:34:02.278Z,0
2017-04-23T02:35:12.801Z,0
2017-04-23T02:36:22.767Z,0
2017-04-23T02:37:32.728Z,0
2017-04-23T02:38:42.709Z,0
2017-04-23T02:39:52.985Z,0
2017-04-23T02:41:03.519Z,0
2017-04-23T02:42:13.476Z,0
2017-04-23T02:43:23.853Z,0
2017-04-23T02:44:33.816Z,0
2017-04-23T02:45:44.122Z,0
2017-04-23T02:46:54.654Z,0
2017-04-23T02:48:04.938Z,0
2017-04-23T02:49:14.592Z,0
2017-04-23T02:50:24.253Z,0
2017-04-23T02:51:34.537Z,0
2017-04-23T02:52:45.142Z,0
2017-04-23T02:53:55.420Z,0
2017-04-23T02:55:05.076Z,0
2017-04-23T02:56:15.355Z,0
2017-04-23T02:57:25.325Z,0
2017-04-23T02:58:35.541Z,0
2017-04-23T02:59:45.818Z,0
2017-04-23T03:00:55.790Z,0
2017-04-23T03:02:05.438Z,0
2017-04-23T03:03:15.422Z,0
2017-04-23T03:04:25.959Z,0
2017-04-23T03:05:35.933Z,0
2017-04-23T03:06:46.214Z,0
2017-04-23T03:07:56.206Z,0
2017-04-23T03:09:06.499Z,0
2017-04-23T03:10:16.763Z,0
2017-04-23T03:11:27.035Z,0
2017-04-23T03:12:37.312Z,0
2017-04-23T03:13:47.596Z,0
2017-04-23T03:14:57.869Z,0
2017-04-23T03:16:08.425Z,0
2017-04-23T03:17:18.389Z,0
2017-04-23T03:18:28.369Z,0
2017-04-23T03:19:38.655Z,0
2017-04-23T03:20:48.948Z,0
2017-04-23T03:21:59.167Z,0
2017-04-23T03:23:09.446Z,0
2017-04-23T03:24:19.408Z,0
2017-04-23T03:25:29.698Z,0
2017-04-23T03:26:39.986Z,0
2017-04-23T03:27:50.518Z,0
2017-04-23T03:29:00.800Z,0
2017-04-23T03:30:11.078Z,0
2017-04-23T03:31:20.723Z,0
2017-04-23T03:32:31.027Z,0
2017-04-23T03:33:41.244Z,0
2017-04-23T03:34:51.528Z,0
2017-04-23T03:36:01.490Z,0
2017-04-23T03:37:11.463Z,0
2017-04-23T03:38:21.743Z,0
2017-04-23T03:39:32.279Z,0
2017-04-23T03:40:42.238Z,0
2017-04-23T03:41:52.213Z,0
2017-04-23T03:43:02.186Z,0
2017-04-23T03:44:12.154Z,0
2017-04-23T03:45:22.689Z,0
2017-04-23T03:46:32.966Z,0
2017-04-23T03:47:42.935Z,0
2017-04-23T03:48:52.913Z,0
2017-04-23T03:50:03.207Z,0
2017-04-23T03:51:13.783Z,0
2017-04-23T03:52:24.068Z,0
2017-04-23T03:53:34.349Z,0
2017-04-23T03:54:44.627Z,0
2017-04-23T03:55:54.286Z,0
2017-04-23T03:57:04.186Z,0
2017-04-23T03:58:14.464Z,0
2017-04-23T03:59:24.433Z,0
2017-04-23T04:00:34.704Z,0
2017-04-23T04:01:44.988Z,0
2017-04-23T04:02:55.514Z,0
2017-04-23T04:04:05.808Z,0
2017-04-23T04:05:16.086Z,0
2017-04-23T04:06:26.358Z,0
2017-04-23T04:07:36.323Z,0
2017-04-23T04:08:46.543Z,4
2017-04-23T04:09:56.826Z,4
2017-04-23T04:11:07.099Z,4
2017-04-23T04:12:17.060Z,4
2017-04-23T04:13:27.356Z,4
2017-04-23T04:14:37.260Z,4
2017-04-23T04:15:47.229Z,4
2017-04-23T04:16:57.505Z,0
2017-04-23T04:18:07.777Z,0
2017-04-23T04:19:18.055Z,0
2017-04-23T04:20:28.276Z,0
2017-04-23T04:21:38.548Z,0
2017-04-23T04:22:48.196Z,0
2017-04-23T04:23:58.159Z,4
2017-04-23T04:25:08.133Z,4
2017-04-23T04:26:18.392Z,4
2017-04-23T04:27:28.276Z,4
2017-04-23T04:28:38.242Z,4
2017-04-23T04:29:48.521Z,4
2017-04-23T04:30:58.805Z,4
2017-04-23T04:32:09.383Z,4
2017-04-23T04:33:19.661Z,4
2017-04-23T04:34:29.315Z,4
2017-04-23T04:35:38.981Z,4
2017-04-23T04:36:49.273Z,4
2017-04-23T04:37:59.805Z,4
2017-04-23T04:39:09.762Z,0
2017-04-23T04:40:19.751Z,0
2017-04-23T04:41:29.733Z,4
2017-04-23T04:42:40.036Z,4
2017-04-23T04:43:50.573Z,4
2017-04-23T04:45:00.848Z,4
2017-04-23T04:46:10.823Z,4
2017-04-23T04:47:20.780Z,4
2017-04-23T04:48:31.060Z,4
2017-04-23T04:49:41.601Z,4
2017-04-23T04:50:51.876Z,4
2017-04-23T04:52:01.847Z,4
2017-04-23T04:53:12.123Z,8
2017-04-23T04:54:22.100Z,4
2017-04-23T04:55:32.640Z,4
2017-04-23T04:56:42.605Z,4
2017-04-23T04:57:52.877Z,4
2017-04-23T04:59:03.162Z,4
2017-04-23T05:00:13.438Z,4
2017-04-23T05:01:23.648Z,4
2017-04-23T05:02:33.920Z,4
2017-04-23T05:03:44.216Z,4
2017-04-23T05:04:54.508Z,4
2017-04-23T05:06:04.780Z,8
2017-04-23T05:07:15.309Z,4
2017-04-23T05:08:25.580Z,8
2017-04-23T05:09:35.542Z,8
2017-04-23T05:10:45.822Z,8
2017-04-23T05:11:56.111Z,4
2017-04-23T05:13:06.634Z,8
2017-04-23T05:14:16.606Z,4
2017-04-23T05:15:26.571Z,4
2017-04-23T05:16:36.852Z,4
2017-04-23T05:17:46.520Z,4
2017-04-23T05:18:57.054Z,4
2017-04-23T05:20:07.332Z,4
2017-04-23T05:21:17.618Z,4
2017-04-23T05:22:27.582Z,4
2017-04-23T05:23:37.855Z,4
2017-04-23T05:24:48.070Z,4
2017-04-23T05:25:58.349Z,8
2017-04-23T05:27:08.330Z,8
2017-04-23T05:28:18.618Z,8
2017-04-23T05:29:28.275Z,8
2017-04-23T05:30:38.793Z,8
2017-04-23T05:31:48.438Z,8
2017-04-23T05:32:58.409Z,8
2017-04-23T05:34:08.062Z,4
2017-04-23T05:35:18.339Z,4
2017-04-23T05:36:28.593Z,4
2017-04-23T05:37:38.867Z,8
2017-04-23T05:38:49.149Z,4
2017-04-23T05:39:59.418Z,4
2017-04-23T05:41:09.379Z,8
2017-04-23T05:42:19.920Z,4
2017-04-23T05:43:30.204Z,8
2017-04-23T05:44:40.498Z,8
2017-04-23T05:45:50.783Z,8
2017-04-23T05:47:00.755Z,8
2017-04-23T05:48:11.299Z,8
2017-04-23T05:49:21.266Z,8
2017-04-23T05:50:31.555Z,4
2017-04-23T05:51:41.215Z,8
2017-04-23T05:52:51.185Z,4
2017-04-23T05:54:01.407Z,8
2017-04-23T05:55:11.681Z,8
2017-04-23T05:56:21.348Z,8
2017-04-23T05:57:31.318Z,8
2017-04-23T05:58:41.598Z,8
2017-04-23T05:59:51.822Z,8
2017-04-23T06:01:01.806Z,8
2017-04-23T06:02:12.088Z,8
2017-04-23T06:03:22.365Z,8
2017-04-23T06:04:32.016Z,8
2017-04-23T06:05:42.230Z,12
2017-04-23T06:06:52.195Z,12
2017-04-23T06:08:02.488Z,12
2017-04-23T06:09:12.776Z,12
2017-04-23T06:10:22.753Z,12
2017-04-23T06:11:33.335Z,12
2017-04-23T06:12:43.616Z,12
2017-04-23T06:13:53.903Z,16
2017-04-23T06:15:04.190Z,20
2017-04-23T06:16:14.478Z,24
2017-04-23T06:17:25.024Z,24
2017-04-23T06:18:35.302Z,24
2017-04-23T06:19:45.266Z,24
2017-04-23T06:20:55.232Z,24
2017-04-23T06:22:05.534Z,24
2017-04-23T06:23:16.067Z,20
2017-04-23T06:24:26.341Z,20
2017-04-23T06:25:36.014Z,20
2017-04-23T06:26:46.309Z,16
2017-04-23T06:27:56.605Z,12
2017-04-23T06:29:06.830Z,16
2017-04-23T06:30:17.112Z,12
2017-04-23T06:31:27.415Z,12
2017-04-23T06:32:37.387Z,12
2017-04-23T06:33:47.681Z,12
2017-04-23T06:34:58.223Z,12
2017-04-23T06:36:08.500Z,12
2017-04-23T06:37:18.775Z,12
2017-04-23T06:38:29.054Z,12
2017-04-23T06:39:39.372Z,12
2017-04-23T06:40:49.903Z,12
2017-04-23T06:42:00.183Z,12
2017-04-23T06:43:10.470Z,12
2017-04-23T06:44:20.758Z,12
2017-04-23T06:45:31.036Z,16
2017-04-23T06:46:40.938Z,16
2017-04-23T06:47:50.930Z,20
2017-04-23T06:49:00.585Z,16
2017-04-23T06:50:10.564Z,16
2017-04-23T06:51:20.533Z,16
2017-04-23T06:52:31.060Z,16
2017-04-23T06:53:41.350Z,16
2017-04-23T06:54:51.318Z,16
2017-04-23T06:56:01.599Z,12
2017-04-23T06:57:11.566Z,12
2017-04-23T06:58:21.778Z,12
2017-04-23T06:59:31.768Z,12
2017-04-23T07:00:42.069Z,12
2017-04-23T07:01:52.347Z,16
2017-04-23T07:03:02.627Z,20
2017-04-23T07:04:12.874Z,20
2017-04-23T07:05:22.854Z,20
2017-04-23T07:06:33.163Z,24
2017-04-23T07:07:43.445Z,24
2017-04-23T07:08:53.752Z,28
2017-04-23T07:10:04.332Z,28
2017-04-23T07:11:14.617Z,28
2017-04-23T07:12:24.902Z,32
2017-04-23T07:13:35.203Z,32
2017-04-23T07:14:45.499Z,24
2017-04-23T07:15:55.412Z,24
2017-04-23T07:17:05.620Z,20
2017-04-23T07:18:15.895Z,16
2017-04-23T07:19:25.860Z,20
2017-04-23T07:20:35.842Z,16
2017-04-23T07:21:46.067Z,16
2017-04-23T07:22:56.364Z,16
2017-04-23T07:24:06.663Z,20
2017-04-23T07:25:16.946Z,20
2017-04-23T07:26:27.254Z,20
2017-04-23T07:27:37.791Z,20
2017-04-23T07:28:48.093Z,20
2017-04-23T07:29:58.381Z,24
2017-04-23T07:31:08.670Z,24
2017-04-23T07:32:18.946Z,24
2017-04-23T07:33:29.164Z,28
2017-04-23T07:34:39.461Z,28
2017-04-23T07:35:49.740Z,24
2017-04-23T07:36:59.721Z,24
2017-04-23T07:38:10.002Z,24
2017-04-23T07:39:20.530Z,28
2017-04-23T07:40:30.818Z,32
2017-04-23T07:41:40.480Z,36
2017-04-23T07:42:50.752Z,36
2017-04-23T07:44:00.723Z,36
2017-04-23T07:45:11.253Z,48
2017-04-23T07:46:21.535Z,52
2017-04-23T07:47:31.497Z,56
2017-04-23T07:48:41.467Z,64
2017-04-23T07:49:51.752Z,60
2017-04-23T07:51:02.273Z,60
2017-04-23T07:52:12.277Z,48
2017-04-23T07:53:22.241Z,48
2017-04-23T07:54:31.901Z,52
2017-04-23T07:55:42.216Z,60
2017-04-23T07:56:52.812Z,64
2017-04-23T07:58:02.799Z,68
2017-04-23T07:59:13.081Z,60
2017-04-23T08:00:23.372Z,52
2017-04-23T08:01:33.671Z,48
2017-04-23T08:02:44.208Z,52
2017-04-23T08:03:54.488Z,44
2017-04-23T08:05:04.770Z,44
2017-04-23T08:06:15.047Z,48
2017-04-23T08:07:25.029Z,56
2017-04-23T08:08:35.261Z,52
2017-04-23T08:09:45.232Z,48
2017-04-23T08:10:55.206Z,44
2017-04-23T08:12:05.504Z,44
2017-04-23T08:13:15.792Z,48
2017-04-23T08:14:26.067Z,44
2017-04-23T08:15:36.041Z,36
2017-04-23T08:16:45.707Z,36
2017-04-23T08:17:56.001Z,36
2017-04-23T08:19:06.218Z,36
2017-04-23T08:20:16.467Z,36
2017-04-23T08:21:26.749Z,40
2017-04-23T08:22:37.050Z,40
2017-04-23T08:23:47.354Z,36
2017-04-23T08:24:57.638Z,36
2017-04-23T08:26:08.224Z,40
2017-04-23T08:27:18.510Z,44
2017-04-23T08:28:28.792Z,44
2017-04-23T08:29:39.070Z,48
2017-04-23T08:30:49.361Z,44
2017-04-23T08:31:59.655Z,52
2017-04-23T08:33:09.325Z,48
2017-04-23T08:34:19.619Z,48
2017-04-23T08:35:29.606Z,52
2017-04-23T08:36:39.895Z,52
2017-04-23T08:37:49.823Z,52
2017-04-23T08:39:00.120Z,52
2017-04-23T08:40:10.416Z,48
2017-04-23T08:41:20.405Z,60
2017-04-23T08:42:30.708Z,76
2017-04-23T08:43:41.000Z,68
2017-04-23T08:44:51.315Z,64
2017-04-23T08:46:01.606Z,76
2017-04-23T08:47:11.594Z,64
2017-04-23T08:48:21.880Z,92
2017-04-23T08:49:31.852Z,72
2017-04-23T08:50:41.540Z,84
2017-04-23T08:51:51.520Z,68
2017-04-23T08:53:01.497Z,64
2017-04-23T08:54:11.782Z,52
2017-04-23T08:55:21.759Z,48
2017-04-23T08:56:31.750Z,40
2017-04-23T08:57:41.741Z,32
2017-04-23T08:58:52.046Z,24
2017-04-23T09:00:02.346Z,24
2017-04-23T09:01:12.574Z,24
2017-04-23T09:02:22.858Z,20
2017-04-23T09:03:33.161Z,20
2017-04-23T09:04:43.144Z,24
2017-04-23T09:05:53.154Z,20
2017-04-23T09:07:03.065Z,20
2017-04-23T09:08:12.742Z,16
2017-04-23T09:09:22.755Z,12
2017-04-23T09:10:33.053Z,12
2017-04-23T09:11:43.352Z,20
2017-04-23T09:12:53.335Z,32
2017-04-23T09:14:03.636Z,40
2017-04-23T09:15:13.933Z,68
2017-04-23T09:16:23.947Z,52
2017-04-23T09:17:34.249Z,52
2017-04-23T09:18:44.854Z,48
2017-04-23T09:19:54.858Z,60
2017-04-23T09:21:04.835Z,68
2017-04-23T09:22:15.194Z,64
2017-04-23T09:23:25.539Z,92
2017-04-23T09:24:35.848Z,96
2017-04-23T09:25:46.183Z,100
2017-04-23T09:26:56.531Z,92
2017-04-23T09:28:06.921Z,84
2017-04-23T09:29:17.222Z,96
2017-04-23T09:30:27.790Z,100
2017-04-23T09:31:38.090Z,108
2017-04-23T09:32:48.400Z,108
2017-04-23T09:33:58.413Z,108
2017-04-23T09:35:08.430Z,112
2017-04-23T09:36:18.982Z,64
2017-04-23T09:37:29.285Z,60
2017-04-23T09:38:39.611Z,56
2017-04-23T09:39:50.000Z,84
2017-04-23T09:40:59.680Z,44
2017-04-23T09:42:10.255Z,40
2017-04-23T09:43:20.603Z,36
2017-04-23T09:44:30.609Z,32
2017-04-23T09:45:40.624Z,32
2017-04-23T09:46:50.617Z,28
2017-04-23T09:48:00.894Z,28
2017-04-23T09:49:11.207Z,28
2017-04-23T09:50:21.209Z,28
2017-04-23T09:51:31.231Z,28
2017-04-23T09:52:41.549Z,28
2017-04-23T09:53:51.496Z,28
2017-04-23T09:55:01.515Z,32
2017-04-23T09:56:11.888Z,36
2017-04-23T09:57:22.193Z,44
2017-04-23T09:58:32.550Z,48
2017-04-23T09:59:42.828Z,52
2017-04-23T10:00:52.844Z,52
2017-04-23T10:02:03.160Z,60
2017-04-23T10:03:13.515Z,68
2017-04-23T10:04:23.531Z,72
2017-04-23T10:05:33.778Z,76
2017-04-23T10:06:44.144Z,88
2017-04-23T10:07:54.438Z,88
2017-04-23T10:09:04.772Z,88
2017-04-23T10:10:14.774Z,84
2017-04-23T10:11:25.430Z,84
2017-04-23T10:12:35.765Z,84
2017-04-23T10:13:46.115Z,88
2017-04-23T10:14:56.452Z,88
2017-04-23T10:16:06.781Z,92
2017-04-23T10:17:17.363Z,92
2017-04-23T10:18:27.702Z,92
2017-04-23T10:19:37.405Z,100
2017-04-23T10:20:47.750Z,104
2017-04-23T10:21:58.105Z,104
2017-04-23T10:23:08.715Z,108
2017-04-23T10:24:18.741Z,100
2017-04-23T10:25:29.065Z,64
2017-04-23T10:26:38.765Z,64
2017-04-23T10:27:48.786Z,72
2017-04-23T10:28:59.401Z,104
2017-04-23T10:30:09.765Z,112
2017-04-23T10:31:19.454Z,104
2017-04-23T10:32:29.778Z,108
2017-04-23T10:33:39.788Z,96
2017-04-23T10:34:50.057Z,104
2017-04-23T10:36:00.370Z,104
2017-04-23T10:37:10.713Z,108
2017-04-23T10:38:21.054Z,108
2017-04-23T10:39:31.401Z,96
2017-04-23T10:40:41.641Z,100
2017-04-23T10:41:51.652Z,100
2017-04-23T10:43:01.984Z,100
2017-04-23T10:44:11.990Z,104
2017-04-23T10:45:22.013Z,56
2017-04-23T10:46:32.587Z,108
2017-04-23T10:47:42.620Z,56
2017-04-23T10:48:52.944Z,52
2017-04-23T10:50:02.640Z,44
2017-04-23T10:51:12.646Z,48
2017-04-23T10:52:23.229Z,56
2017-04-23T10:53:33.304Z,52
2017-04-23T10:54:43.353Z,48
2017-04-23T10:55:53.706Z,40
2017-04-23T10:57:03.742Z,44
2017-04-23T10:58:14.356Z,44
2017-04-23T10:59:24.691Z,48
2017-04-23T11:00:35.026Z,52
2017-04-23T11:01:45.348Z,48
2017-04-23T11:02:55.379Z,52
2017-04-23T11:04:05.690Z,104
2017-04-23T11:05:15.736Z,56
2017-04-23T11:06:25.755Z,52
2017-04-23T11:07:36.064Z,104
2017-04-23T11:08:46.384Z,60
2017-04-23T11:09:56.649Z,76
2017-04-23T11:11:06.673Z,48
2017-04-23T11:12:17.020Z,48
2017-04-23T11:13:27.373Z,44
2017-04-23T11:14:37.709Z,44
2017-04-23T11:15:48.002Z,48
2017-04-23T11:16:58.316Z,44
2017-04-23T11:18:08.336Z,48
2017-04-23T11:19:18.663Z,96
2017-04-23T11:20:28.980Z,96
2017-04-23T11:21:39.642Z,100
2017-04-23T11:22:49.950Z,104
2017-04-23T11:23:59.968Z,104
2017-04-23T11:25:10.293Z,108
2017-04-23T11:26:20.693Z,108
2017-04-23T11:27:30.625Z,104
2017-04-23T11:28:40.975Z,104
2017-04-23T11:29:51.316Z,104
2017-04-23T11:31:01.651Z,104
2017-04-23T11:32:11.350Z,64
2017-04-23T11:33:21.933Z,80
2017-04-23T11:34:31.964Z,100
2017-04-23T11:35:42.285Z,100
2017-04-23T11:36:52.630Z,100
2017-04-23T11:38:02.624Z,92
2017-04-23T11:39:13.250Z,96
2017-04-23T11:40:23.581Z,64
2017-04-23T11:41:33.621Z,96
2017-04-23T11:42:43.965Z,92
2017-04-23T11:43:54.009Z,96
2017-04-23T11:45:04.302Z,96
2017-04-23T11:46:14.331Z,96
2017-04-23T11:47:24.379Z,100
2017-04-23T11:48:34.686Z,104
2017-04-23T11:49:45.054Z,68
2017-04-23T11:50:55.668Z,56
2017-04-23T11:52:06.011Z,56
2017-04-23T11:53:16.339Z,64
2017-04-23T11:54:26.690Z,52
2017-04-23T11:55:37.005Z,52
2017-04-23T11:56:47.591Z,48
2017-04-23T11:57:57.945Z,48
2017-04-23T11:59:07.940Z,48
2017-04-23T12:00:18.296Z,56
2017-04-23T12:01:28.619Z,52
2017-04-23T12:02:39.253Z,52
2017-04-23T12:03:49.283Z,60
2017-04-23T12:04:59.663Z,64
2017-04-23T12:06:09.368Z,60
2017-04-23T12:07:19.689Z,64
2017-04-23T12:08:29.979Z,56
2017-04-23T12:09:40.319Z,64
2017-04-23T12:10:50.655Z,80
2017-04-23T12:12:00.961Z,88
2017-04-23T12:13:11.309Z,88
2017-04-23T12:14:21.894Z,88
2017-04-23T12:15:32.236Z,64
2017-04-23T12:16:41.917Z,60
2017-04-23T12:17:51.961Z,60
2017-04-23T12:19:02.279Z,60
2017-04-23T12:20:12.903Z,76
2017-04-23T12:21:23.234Z,60
2017-04-23T12:22:33.566Z,56
2017-04-23T12:23:43.914Z,56
2017-04-23T12:24:54.280Z,60
2017-04-23T12:26:04.868Z,64
2017-04-23T12:27:14.882Z,64
2017-04-23T12:28:25.247Z,68
2017-04-23T12:29:35.579Z,76
2017-04-23T12:30:45.924Z,76
2017-04-23T12:31:56.500Z,72
2017-04-23T12:33:06.866Z,84
2017-04-23T12:34:17.288Z,88
2017-04-23T12:35:27.678Z,100
2017-04-23T12:36:38.074Z,84
2017-04-23T12:37:48.393Z,88
2017-04-23T12:38:58.824Z,80
2017-04-23T12:40:08.974Z,80
2017-04-23T12:41:19.136Z,80
2017-04-23T12:42:29.584Z,84
2017-04-23T12:43:39.975Z,80
2017-04-23T12:44:50.088Z,88
2017-04-23T12:46:00.518Z,72
2017-04-23T12:47:11.034Z,64
2017-04-23T12:48:21.108Z,68
2017-04-23T12:49:31.678Z,76
2017-04-23T12:50:42.204Z,60
2017-04-23T12:51:52.595Z,64
2017-04-23T12:53:03.069Z,84
2017-04-23T12:54:13.539Z,76
2017-04-23T12:55:24.235Z,76
2017-04-23T12:56:34.665Z,76
2017-04-23T12:57:45.025Z,72
2017-04-23T12:58:55.453Z,84
2017-04-23T13:00:05.604Z,80
2017-04-23T13:01:15.937Z,60
2017-04-23T13:02:26.407Z,60
2017-04-23T13:03:36.788Z,60
2017-04-23T13:04:46.926Z,68
2017-04-23T13:05:57.335Z,76
2017-04-23T13:07:07.746Z,76
2017-04-23T13:08:18.123Z,80
2017-04-23T13:09:28.648Z,68
2017-04-23T13:10:39.050Z,76
2017-04-23T13:11:49.166Z,44
2017-04-23T13:12:59.548Z,56
2017-04-23T13:14:10.059Z,80
2017-04-23T13:15:20.152Z,76
2017-04-23T13:16:30.233Z,68
2017-04-23T13:17:40.327Z,80
2017-04-23T13:18:50.640Z,44
2017-04-23T13:20:00.794Z,72
2017-04-23T13:21:10.909Z,68
2017-04-23T13:22:21.332Z,72
2017-04-23T13:23:31.467Z,72
2017-04-23T13:24:42.122Z,60
2017-04-23T13:25:52.590Z,68
2017-04-23T13:27:02.725Z,72
2017-04-23T13:28:12.862Z,72
2017-04-23T13:29:23.026Z,72
2017-04-23T13:30:33.858Z,72
2017-04-23T13:31:43.953Z,64
2017-04-23T13:32:54.508Z,76
2017-04-23T13:34:04.971Z,76
2017-04-23T13:35:15.425Z,72
2017-04-23T13:36:26.105Z,76
2017-04-23T13:37:36.548Z,52
2017-04-23T13:38:46.680Z,52
2017-04-23T13:39:56.808Z,48
2017-04-23T13:41:06.903Z,48
2017-04-23T13:42:17.633Z,44
2017-04-23T13:43:28.491Z,44
2017-04-23T13:44:38.977Z,36
2017-04-23T13:45:48.769Z,36
2017-04-23T13:46:58.949Z,32
2017-04-23T13:48:09.684Z,32
2017-04-23T13:49:19.471Z,28
2017-04-23T13:50:29.901Z,28
2017-04-23T13:51:40.002Z,28
2017-04-23T13:52:50.229Z,32
2017-04-23T13:54:00.934Z,32
2017-04-23T13:55:11.085Z,28
2017-04-23T13:56:20.962Z,24
2017-04-23T13:57:31.065Z,16
2017-04-23T13:58:41.710Z,16
2017-04-23T13:59:52.282Z,12
2017-04-23T14:01:02.459Z,8
2017-04-23T14:02:12.940Z,8
2017-04-23T14:03:23.555Z,8
2017-04-23T14:04:33.984Z,12
2017-04-23T14:05:44.776Z,12
2017-04-23T14:06:55.256Z,20
2017-04-23T14:08:05.714Z,24
2017-04-23T14:09:16.145Z,32
2017-04-23T14:10:26.693Z,36
2017-04-23T14:11:37.521Z,52
2017-04-23T14:12:48.642Z,48
2017-04-23T14:14:00.144Z,52
2017-04-23T14:15:11.469Z,52
2017-04-23T14:16:22.246Z,48
2017-04-23T14:17:33.742Z,48
2017-04-23T14:18:45.313Z,48
2017-04-23T14:19:56.788Z,48
2017-04-23T14:21:08.267Z,48
2017-04-23T14:22:19.173Z,48
2017-04-23T14:23:29.920Z,52
2017-04-23T14:24:40.369Z,52
2017-04-23T14:25:50.915Z,56
2017-04-23T14:27:01.389Z,64
2017-04-23T14:28:11.860Z,52
2017-04-23T14:29:22.572Z,48
2017-04-23T14:30:32.726Z,48
2017-04-23T14:31:42.526Z,52
2017-04-23T14:32:52.972Z,44
2017-04-23T14:34:03.447Z,44
2017-04-23T14:35:13.881Z,40
2017-04-23T14:36:23.750Z,56
2017-04-23T14:37:34.193Z,48
2017-04-23T14:38:44.661Z,40
2017-04-23T14:39:54.758Z,40
2017-04-23T14:41:05.208Z,48
2017-04-23T14:42:15.425Z,32
2017-04-23T14:43:25.532Z,28
2017-04-23T14:44:35.959Z,32
2017-04-23T14:45:46.383Z,28
2017-04-23T14:46:57.104Z,28
2017-04-23T14:48:07.232Z,20
2017-04-23T14:49:17.706Z,16
2017-04-23T14:50:28.114Z,12
2017-04-23T14:51:38.495Z,8
2017-04-23T14:52:48.553Z,8
2017-04-23T14:53:58.919Z,12
2017-04-23T14:55:09.328Z,8
2017-04-23T14:56:19.391Z,12
2017-04-23T14:57:29.789Z,12
2017-04-23T14:58:40.125Z,20
2017-04-23T14:59:50.214Z,24
2017-04-23T15:01:00.288Z,28
2017-04-23T15:02:10.396Z,24
2017-04-23T15:03:20.447Z,28
2017-04-23T15:04:31.091Z,32
2017-04-23T15:05:41.192Z,32
2017-04-23T15:06:51.575Z,28
2017-04-23T15:08:01.987Z,32
2017-04-23T15:09:12.365Z,32
2017-04-23T15:10:23.032Z,32
2017-04-23T15:11:33.403Z,28
2017-04-23T15:12:43.844Z,28
2017-04-23T15:13:54.297Z,32
2017-04-23T15:15:04.061Z,32
2017-04-23T15:16:13.873Z,36
2017-04-23T15:17:24.231Z,32
2017-04-23T15:18:34.625Z,32
2017-04-23T15:19:45.026Z,32
2017-04-23T15:20:55.416Z,36
2017-04-23T15:22:06.295Z,32
2017-04-23T15:23:16.068Z,32
2017-04-23T15:24:26.501Z,32
2017-04-23T15:25:36.861Z,32
2017-04-23T15:26:46.933Z,32
2017-04-23T15:27:57.588Z,32
2017-04-23T15:29:07.992Z,32
2017-04-23T15:30:17.773Z,32
2017-04-23T15:31:28.170Z,32
2017-04-23T15:32:38.588Z,36
2017-04-23T15:33:48.898Z,32
2017-04-23T15:34:59.015Z,36
2017-04-23T15:36:09.618Z,32
2017-04-23T15:37:19.659Z,36
2017-04-23T15:38:29.711Z,36
2017-04-23T15:39:40.405Z,36
2017-04-23T15:40:50.483Z,40
2017-04-23T15:42:00.885Z,36
2017-04-23T15:43:11.282Z,36
2017-04-23T15:44:21.026Z,36
2017-04-23T15:45:31.658Z,36
2017-04-23T15:46:42.052Z,36
2017-04-23T15:47:52.443Z,32
2017-04-23T15:49:02.790Z,32
2017-04-23T15:50:12.873Z,36
2017-04-23T15:51:23.569Z,32
2017-04-23T15:52:33.625Z,32
2017-04-23T15:53:43.662Z,28
2017-04-23T15:54:54.068Z,24
2017-04-23T15:56:04.645Z,28
2017-04-23T15:57:14.975Z,24
2017-04-23T15:58:25.379Z,24
2017-04-23T15:59:35.725Z,24
2017-04-23T16:00:46.130Z,24
2017-04-23T16:01:56.497Z,28
2017-04-23T16:03:07.217Z,28
2017-04-23T16:04:17.590Z,24
2017-04-23T16:05:27.959Z,28
2017-04-23T16:06:38.351Z,24
2017-04-23T16:07:48.952Z,28
2017-04-23T16:08:59.791Z,28
2017-04-23T16:10:10.176Z,24
2017-04-23T16:11:20.587Z,24
2017-04-23T16:12:30.638Z,28
2017-04-23T16:13:41.041Z,28
2017-04-23T16:14:51.371Z,24
2017-04-23T16:16:01.763Z,24
2017-04-23T16:17:12.126Z,28
2017-04-23T16:18:22.539Z,24
2017-04-23T16:19:32.602Z,24
2017-04-23T16:20:43.461Z,20
2017-04-23T16:21:53.519Z,20
2017-04-23T16:23:03.582Z,24
2017-04-23T16:24:13.995Z,24
2017-04-23T16:25:24.394Z,24
2017-04-23T16:26:35.027Z,20
2017-04-23T16:27:45.416Z,24
2017-04-23T16:28:55.792Z,20
2017-04-23T16:30:05.884Z,24
2017-04-23T16:31:15.635Z,20
2017-04-23T16:32:26.302Z,24
2017-04-23T16:33:36.744Z,20
2017-04-23T16:34:46.821Z,20
2017-04-23T16:35:57.199Z,20
2017-04-23T16:37:07.592Z,20
2017-04-23T16:38:17.617Z,20
2017-04-23T16:39:27.717Z,20
2017-04-23T16:40:38.360Z,16
2017-04-23T16:41:48.760Z,20
2017-04-23T16:42:59.187Z,20
2017-04-23T16:44:09.874Z,20
2017-04-23T16:45:19.962Z,20
2017-04-23T16:46:29.732Z,20
2017-04-23T16:47:40.686Z,20
2017-04-23T16:48:50.784Z,20
2017-04-23T16:50:01.578Z,20
2017-04-23T16:51:12.011Z,20
2017-04-23T16:52:22.425Z,16
2017-04-23T16:53:32.481Z,16